createdAt,value
2022-11-22T00:08:44.432Z,0.65
2022-11-22T00:18:51.899Z,0.60
2022-11-22T00:28:59.091Z,0.57
2022-11-22T00:39:05.360Z,0.40
2022-11-22T00:49:12.715Z,0.45
2022-11-22T00:59:19.977Z,0.52
2022-11-22T01:09:27.485Z,0.65
2022-11-22T01:19:35.246Z,0.62
2022-11-22T01:29:41.602Z,0.54
2022-11-22T01:39:48.622Z,0.45
2022-11-22T01:50:01.750Z,0.38
2022-11-22T02:00:09.527Z,0.34
2022-11-22T02:10:16.395Z,0.32
2022-11-22T02:20:23.625Z,0.37
2022-11-22T02:30:30.872Z,0.50
2022-11-22T02:40:39.464Z,0.65
2022-11-22T02:50:46.247Z,0.80
2022-11-22T03:00:53.545Z,0.94
2022-11-22T03:11:00.093Z,1.01
2022-11-22T03:21:09.553Z,1.14
2022-11-22T03:31:15.110Z,1.24
2022-11-22T03:41:22.257Z,1.35
2022-11-22T03:51:29.894Z,1.42
2022-11-22T04:01:37.100Z,1.51
2022-11-22T04:11:44.600Z,1.55
2022-11-22T04:21:51.637Z,1.55
2022-11-22T04:32:16.382Z,1.54
2022-11-22T04:42:40.328Z,1.56
2022-11-22T04:52:59.751Z,1.49
2022-11-22T05:03:07.169Z,1.42
2022-11-22T05:23:39.134Z,1.21
2022-11-22T05:33:47.595Z,1.14
2022-11-22T05:43:55.376Z,1.19
2022-11-22T05:54:02.578Z,1.17
2022-11-22T06:04:09.746Z,1.11
2022-11-22T06:14:16.852Z,1.13
2022-11-22T06:24:23.991Z,1.12
2022-11-22T06:34:31.132Z,1.09
2022-11-22T06:44:38.386Z,1.01
2022-11-22T06:54:45.954Z,1.01
2022-11-22T07:05:23.375Z,1.07
2022-11-22T07:15:20.430Z,1.06
2022-11-22T07:25:27.917Z,1.10
2022-11-22T07:35:34.996Z,1.11
2022-11-22T07:45:42.063Z,1.21
2022-11-22T07:55:49.418Z,1.28
2022-11-22T08:05:59.839Z,1.40
2022-11-22T08:16:06.110Z,1.62
2022-11-22T08:26:15.480Z,1.87
2022-11-22T08:36:22.921Z,2.27
2022-11-22T08:46:30.369Z,2.59
2022-11-22T08:56:37.610Z,2.99
2022-11-22T09:17:17.540Z,3.44
2022-11-22T09:27:25.957Z,3.51
2022-11-22T09:37:32.694Z,3.77
2022-11-22T09:47:38.007Z,4.09
2022-11-22T09:57:50.256Z,4.11
2022-11-22T10:07:59.389Z,4.08
2022-11-22T10:18:12.846Z,4.24
2022-11-22T10:28:20.397Z,4.31
2022-11-22T10:38:41.451Z,4.54
2022-11-22T10:48:51.163Z,4.70
2022-11-22T10:59:13.189Z,4.88
2022-11-22T11:19:51.824Z,4.88
2022-11-22T11:30:01.656Z,4.87
2022-11-22T11:40:26.772Z,5.03
2022-11-22T11:50:35.195Z,5.04
2022-11-22T12:00:43.181Z,4.95
2022-11-22T12:10:56.418Z,4.96
2022-11-22T12:21:07.146Z,4.93
2022-11-22T12:31:15.446Z,4.71
2022-11-22T12:41:23.443Z,4.41
2022-11-22T12:51:35.851Z,4.29
2022-11-22T13:01:48.554Z,4.31
2022-11-22T13:22:15.115Z,3.79
2022-11-22T13:32:24.487Z,3.60
2022-11-22T13:42:31.871Z,3.52
2022-11-22T13:52:56.441Z,3.19
2022-11-22T14:03:15.192Z,2.98
2022-11-22T14:13:28.138Z,2.86
2022-11-22T14:24:28.825Z,2.53
2022-11-22T14:34:36.885Z,2.32
2022-11-22T14:44:45.316Z,2.20
2022-11-22T14:54:54.241Z,2.10
2022-11-22T15:09:13.690Z,1.94
2022-11-22T15:57:33.558Z,2.02
2022-11-22T16:17:57.993Z,2.25
2022-11-22T16:28:08.291Z,2.39
2022-11-22T16:38:15.754Z,2.43
2022-11-22T16:48:33.392Z,2.43
2022-11-22T16:58:41.201Z,2.44
2022-11-22T17:08:49.736Z,2.51
2022-11-22T17:18:58.110Z,2.58
2022-11-22T17:29:08.538Z,2.60
2022-11-22T17:39:18.709Z,2.56
2022-11-22T17:49:26.589Z,2.56
2022-11-22T17:59:34.307Z,2.65
2022-11-22T18:09:41.737Z,2.71
2022-11-22T18:19:49.108Z,2.78
2022-11-22T18:29:56.701Z,2.77
2022-11-22T18:40:04.129Z,2.69
2022-11-22T19:00:22.334Z,2.68
2022-11-22T19:10:29.775Z,2.71
2022-11-22T19:20:54.529Z,2.62
2022-11-22T19:31:07.887Z,2.55
2022-11-22T19:41:18.033Z,2.46
2022-11-22T19:51:26.317Z,2.43
2022-11-22T20:01:35.176Z,2.38
2022-11-22T20:11:44.457Z,2.23
2022-11-22T20:21:51.920Z,2.15
2022-11-22T20:32:01.166Z,2.12
2022-11-22T20:52:13.386Z,1.95
2022-11-22T21:02:20.435Z,1.78
2022-11-22T21:12:28.187Z,1.67
2022-11-22T21:22:35.410Z,1.47
2022-11-22T21:32:42.916Z,1.31
2022-11-22T21:42:50.044Z,1.24
2022-11-22T21:52:58.320Z,1.23
2022-11-22T22:03:05.385Z,1.26
2022-11-22T22:13:12.988Z,1.25
2022-11-22T22:23:20.095Z,1.17
2022-11-22T22:33:26.414Z,1.22
2022-11-22T22:43:34.867Z,1.28
2022-11-22T22:53:42.997Z,1.29
2022-11-22T23:03:50.529Z,1.16
2022-11-22T23:13:58.413Z,1.05
2022-11-22T23:24:06.276Z,1.04
2022-11-22T23:34:12.509Z,1.07
2022-11-22T23:44:19.779Z,1.14
2022-11-22T23:54:26.892Z,1.07
